Airfield :
LOGIN :

Register | Disclaimer

   EN    FR    IT 

 










Legend :    VFR   Marginal VFR   IFR   Intensive IFR   Very Intensive IFR
Visi :
Ceiling :
>= 8 km
>= 3000ft
5 to 8 km
1000 to 3000 ft
1500m to 5 km
500 to 1000 ft
800 to 1500m
200 to 500 ft
< 800m
< 200 ft
Symbols :   Thunderstorms  Fog  Heavy snow  Heavy precipitations  Wind > 20 kt
SIGMETs :     Misc.  Thunderstorms  Icing  Turbulence  Mountain Waves  Volcanic Ashes






- Airport Elevation : 640 ft
- IATA code : AOC


EDAC - Altenburg-Nobitz

CURRENT METAR :
  • 181720Z 31010KT 260V340 9999 FEW043CB 24/16 Q1010

EXPIRED METARs :
  • 181650Z 28005KT 250V320 9999 FEW042CB 28/17 Q1011
  • 181620Z 17005KT 140V210 9999 -SHRA SCT042CB 27/17 Q1011
  • 181550Z 15004KT 110V200 9999 VCSH NSC 27/15 Q1011
  • 181520Z 12006KT CAVOK 27/15 Q1012
  • 181450Z 13006KT 070V190 CAVOK 28/15 Q1012
  • 181420Z 22006KT 170V300 CAVOK 28/15 Q1012
  • 181350Z VRB02KT CAVOK 28/15 Q1013
  • 181320Z 21005KT 160V250 CAVOK 27/14 Q1013
  • 181250Z VRB04KT CAVOK 26/14 Q1014

TAF COR TAF EDAC
Valid from the 18 at 15:00 until the 19 at 00:00 UTC


181400Z 1815/1824 VRB03KT CAVOK
TEMPO 1816/1818 29015G30KT SHRA SCT035 BKN060CB
PROB40
TEMPO 1816/1818 25020G40KT 3000 TSGR BKN020CB
PROB30
TEMPO 1818/1824 TSRA SCT014CB BKN020



MET'MAP, your aeronautical weather chart ! - Copyright ORBIFLY December 2007 - Disclaimer

ORBIFLY MET'MAP TEAM :

Programming & Development : Alexandra Zaïnal
Original concept : Baudouin d'Aumeries
Technical & hardware support : Manuel Goepfert
Assistance : Marc-Olivier Méhu




SOURCES & CREDITS :

   NOAA